createdAt,value
2022-08-28T00:00:42.907Z,26.79
2022-08-28T00:03:13.845Z,26.65
2022-08-28T00:05:44.644Z,26.65
2022-08-28T00:08:16.375Z,26.67
2022-08-28T00:10:45.067Z,26.76
2022-08-28T00:13:19.784Z,26.86
2022-08-28T00:15:51.715Z,26.89
2022-08-28T00:18:21.478Z,26.85
2022-08-28T00:20:51.943Z,26.77
2022-08-28T00:23:21.038Z,26.72
2022-08-28T00:25:49.553Z,26.66
2022-08-28T00:28:24.118Z,26.65
2022-08-28T00:30:56.364Z,26.63
2022-08-28T00:33:35.342Z,26.60
2022-08-28T00:36:04.752Z,26.45
2022-08-28T00:38:33.137Z,26.43
2022-08-28T00:41:04.898Z,26.45
2022-08-28T00:43:41.152Z,26.46
2022-08-28T00:46:21.857Z,26.43
2022-08-28T00:48:51.187Z,26.39
2022-08-28T00:51:39.797Z,26.32
2022-08-28T00:54:09.139Z,26.22
2022-08-28T00:56:40.977Z,26.05
2022-08-28T00:59:13.234Z,25.95
2022-08-28T01:01:41.598Z,25.85
2022-08-28T01:04:10.857Z,25.66
2022-08-28T01:06:39.378Z,25.48
2022-08-28T01:09:07.678Z,25.37
2022-08-28T01:11:36.457Z,25.32
2022-08-28T01:14:06.580Z,25.28
2022-08-28T01:16:36.287Z,25.28
2022-08-28T01:19:10.208Z,25.27
2022-08-28T01:21:48.179Z,25.17
2022-08-28T01:24:19.667Z,25.12
2022-08-28T01:26:48.170Z,25.12
2022-08-28T01:29:17.072Z,25.10
2022-08-28T01:31:45.547Z,25.08
2022-08-28T01:34:14.494Z,24.99
2022-08-28T01:36:43.757Z,24.93
2022-08-28T01:39:17.459Z,24.83
2022-08-28T01:41:48.823Z,24.75
2022-08-28T01:44:18.674Z,24.68
2022-08-28T01:46:47.910Z,24.58
2022-08-28T01:49:16.707Z,24.42
2022-08-28T01:51:45.144Z,24.34
2022-08-28T01:54:14.063Z,24.32
2022-08-28T01:56:45.228Z,24.23
2022-08-28T01:59:15.544Z,24.11
2022-08-28T02:01:44.714Z,24.07
2022-08-28T02:04:13.780Z,24.02
2022-08-28T02:06:42.730Z,23.93
2022-08-28T02:09:14.365Z,23.84
2022-08-28T02:11:46.581Z,23.79
2022-08-28T02:14:15.954Z,23.73
2022-08-28T02:16:44.326Z,23.71
2022-08-28T02:19:13.042Z,23.65
2022-08-28T02:21:42.622Z,23.58
2022-08-28T02:24:11.197Z,23.41
2022-08-28T02:26:40.017Z,23.36
2022-08-28T02:29:08.262Z,23.30
2022-08-28T02:31:36.639Z,23.28
2022-08-28T02:34:06.790Z,23.21
2022-08-28T02:36:35.232Z,23.11
2022-08-28T02:39:04.055Z,23.10
2022-08-28T02:41:32.568Z,23.14
2022-08-28T02:44:00.982Z,23.13
2022-08-28T02:46:29.529Z,23.07
2022-08-28T02:48:58.073Z,23.07
2022-08-28T02:51:26.502Z,23.01
2022-08-28T02:53:54.897Z,22.88
2022-08-28T02:56:23.217Z,22.76
2022-08-28T02:58:51.970Z,22.67
2022-08-28T03:01:22.746Z,22.56
2022-08-28T03:03:51.857Z,22.41
2022-08-28T03:06:20.268Z,22.28
2022-08-28T03:08:48.638Z,22.15
2022-08-28T03:11:17.069Z,22.05
2022-08-28T03:13:45.457Z,21.95
2022-08-28T03:16:14.896Z,21.83
2022-08-28T03:18:43.467Z,21.76
2022-08-28T03:21:12.253Z,21.64
2022-08-28T03:23:41.113Z,21.57
2022-08-28T03:26:16.661Z,21.52
2022-08-28T03:28:51.108Z,21.48
2022-08-28T03:31:22.586Z,21.42
2022-08-28T03:33:51.480Z,21.39
2022-08-28T03:36:23.628Z,21.30
2022-08-28T03:38:54.523Z,21.13
2022-08-28T03:41:26.197Z,20.96
2022-08-28T03:43:54.507Z,20.80
2022-08-28T03:46:24.992Z,20.70
2022-08-28T03:48:55.546Z,20.60
2022-08-28T03:51:30.045Z,20.49
2022-08-28T03:54:00.167Z,20.46
2022-08-28T03:56:31.308Z,20.46
2022-08-28T03:59:01.950Z,20.48
2022-08-28T04:01:30.447Z,20.42
2022-08-28T04:03:59.053Z,20.36
2022-08-28T04:06:28.908Z,20.29
2022-08-28T04:08:59.895Z,20.19
2022-08-28T04:11:29.140Z,20.09
2022-08-28T04:13:58.739Z,20.01
2022-08-28T04:16:27.208Z,19.88
2022-08-28T04:18:55.643Z,19.81
2022-08-28T04:21:27.072Z,19.75
2022-08-28T04:23:56.343Z,19.68
2022-08-28T04:26:27.870Z,19.63
2022-08-28T04:28:57.778Z,19.58
2022-08-28T04:31:32.497Z,19.54
2022-08-28T04:34:07.381Z,19.45
2022-08-28T04:36:36.343Z,19.37
2022-08-28T04:39:09.558Z,19.24
2022-08-28T04:41:39.698Z,19.12
2022-08-28T04:44:08.661Z,19.04
2022-08-28T04:46:37.873Z,19.00
2022-08-28T04:49:06.839Z,19.04
2022-08-28T04:51:37.827Z,19.10
2022-08-28T04:54:11.839Z,19.04
2022-08-28T04:56:41.587Z,18.92
2022-08-28T04:59:10.388Z,18.92
2022-08-28T05:01:41.202Z,18.92
2022-08-28T05:04:10.674Z,18.92
2022-08-28T05:06:47.373Z,18.74
2022-08-28T05:09:19.268Z,18.56
2022-08-28T05:11:49.138Z,18.50
2022-08-28T05:14:18.219Z,18.50
2022-08-28T05:16:52.003Z,18.47
2022-08-28T05:19:21.879Z,18.48
2022-08-28T05:21:50.218Z,18.47
2022-08-28T05:24:19.058Z,18.45
2022-08-28T05:26:48.041Z,18.48
2022-08-28T05:29:17.765Z,18.52
2022-08-28T05:31:46.603Z,18.52
2022-08-28T05:34:16.168Z,18.48
2022-08-28T05:36:44.799Z,18.43
2022-08-28T05:39:14.243Z,18.45
2022-08-28T05:41:44.548Z,18.46
2022-08-28T05:44:16.013Z,18.41
2022-08-28T05:46:48.662Z,18.41
2022-08-28T05:49:19.235Z,18.44
2022-08-28T05:51:48.163Z,18.44
2022-08-28T05:54:17.070Z,18.42
2022-08-28T05:56:46.828Z,18.43
2022-08-28T05:59:16.859Z,18.44
2022-08-28T06:01:48.551Z,18.45
2022-08-28T06:04:27.313Z,18.46
2022-08-28T06:06:56.665Z,18.39
2022-08-28T06:09:30.282Z,18.37
2022-08-28T06:12:00.821Z,18.37
2022-08-28T06:14:30.900Z,18.36
2022-08-28T06:17:00.663Z,18.35
2022-08-28T06:19:31.004Z,18.32
2022-08-28T06:22:07.615Z,18.28
2022-08-28T06:24:36.578Z,18.25
2022-08-28T06:27:05.099Z,18.22
2022-08-28T06:29:33.544Z,18.16
2022-08-28T06:32:05.361Z,18.11
2022-08-28T06:34:34.270Z,18.09
2022-08-28T06:37:02.737Z,18.05
2022-08-28T06:39:31.148Z,18.03
2022-08-28T06:41:59.538Z,18.00
2022-08-28T06:44:29.742Z,17.97
2022-08-28T06:46:58.588Z,17.95
2022-08-28T06:49:26.898Z,17.95
2022-08-28T06:51:56.003Z,17.92
2022-08-28T06:54:24.503Z,17.95
2022-08-28T06:56:53.938Z,17.98
2022-08-28T06:59:22.263Z,17.99
2022-08-28T07:01:50.573Z,17.94
2022-08-28T07:04:19.044Z,17.91
2022-08-28T07:06:54.108Z,17.92
2022-08-28T07:09:23.047Z,17.91
2022-08-28T07:11:52.199Z,17.90
2022-08-28T07:14:20.590Z,17.91
2022-08-28T07:16:48.905Z,17.90
2022-08-28T07:19:17.622Z,17.87
2022-08-28T07:21:47.537Z,17.87
2022-08-28T07:24:17.139Z,17.85
2022-08-28T07:26:46.743Z,17.86
2022-08-28T07:29:16.180Z,17.86
2022-08-28T07:31:50.417Z,17.86
2022-08-28T07:34:22.257Z,17.85
2022-08-28T07:36:57.298Z,17.84
2022-08-28T07:39:25.633Z,17.83
2022-08-28T07:41:54.068Z,17.83
2022-08-28T07:44:40.832Z,17.82
2022-08-28T07:47:10.584Z,17.80
2022-08-28T07:49:40.657Z,17.74
2022-08-28T07:52:10.258Z,17.69
2022-08-28T07:54:41.229Z,17.65
2022-08-28T07:57:11.944Z,17.62
2022-08-28T07:59:42.428Z,17.60
2022-08-28T08:02:13.873Z,17.54
2022-08-28T08:04:42.430Z,17.51
2022-08-28T08:07:11.039Z,17.48
2022-08-28T08:09:41.142Z,17.48
2022-08-28T08:12:11.057Z,17.48
2022-08-28T08:14:41.544Z,17.46
2022-08-28T08:17:10.823Z,17.46
2022-08-28T08:19:39.538Z,17.45
2022-08-28T08:22:08.338Z,17.43
2022-08-28T08:24:36.713Z,17.41
2022-08-28T08:27:05.403Z,17.37
2022-08-28T08:29:37.301Z,17.33
2022-08-28T08:32:09.457Z,17.29
2022-08-28T08:34:41.772Z,17.25
2022-08-28T08:37:10.666Z,17.23
2022-08-28T08:39:39.307Z,17.19
2022-08-28T08:42:30.923Z,17.17
2022-08-28T08:45:04.312Z,17.15
2022-08-28T08:47:58.743Z,17.14
2022-08-28T08:50:33.443Z,17.14
2022-08-28T08:53:25.459Z,17.14
2022-08-28T08:55:57.883Z,17.15
2022-08-28T08:58:29.868Z,17.14
2022-08-28T09:01:07.006Z,17.13
2022-08-28T09:04:06.258Z,17.09
2022-08-28T09:06:52.288Z,17.07
2022-08-28T09:09:37.898Z,17.05
2022-08-28T09:12:10.303Z,17.05
2022-08-28T09:15:06.673Z,17.02
2022-08-28T09:17:37.559Z,16.99
2022-08-28T09:20:13.243Z,16.97
2022-08-28T09:22:46.701Z,16.96
2022-08-28T09:25:46.939Z,16.93
2022-08-28T09:28:33.300Z,16.88
2022-08-28T09:31:09.041Z,16.84
2022-08-28T09:33:42.997Z,16.82
2022-08-28T09:36:33.467Z,16.78
2022-08-28T09:39:10.423Z,16.75
2022-08-28T09:42:02.093Z,16.69
2022-08-28T09:44:30.983Z,16.63
2022-08-28T09:47:00.332Z,16.58
2022-08-28T09:49:31.629Z,16.59
2022-08-28T09:52:00.532Z,16.58
2022-08-28T09:54:39.721Z,16.53
2022-08-28T09:57:09.139Z,16.49
2022-08-28T09:59:37.547Z,16.48
2022-08-28T10:02:36.018Z,16.47
2022-08-28T10:05:11.699Z,16.47
2022-08-28T10:07:47.313Z,16.45
2022-08-28T10:10:42.895Z,16.44
2022-08-28T10:13:29.062Z,16.41
2022-08-28T10:16:23.570Z,16.35
2022-08-28T10:18:54.582Z,16.36
2022-08-28T10:21:33.389Z,16.33
2022-08-28T10:24:13.384Z,16.32
2022-08-28T10:27:00.659Z,16.30
2022-08-28T10:29:35.203Z,16.25
2022-08-28T10:32:21.403Z,16.22
2022-08-28T10:35:09.297Z,16.24
2022-08-28T10:38:10.002Z,16.27
2022-08-28T10:40:53.137Z,16.26
2022-08-28T10:43:41.458Z,16.28
2022-08-28T10:46:26.490Z,16.28
2022-08-28T10:49:05.297Z,16.32
2022-08-28T10:51:47.857Z,16.30
2022-08-28T10:54:32.102Z,16.31
2022-08-28T10:57:25.787Z,16.30
2022-08-28T10:59:55.538Z,16.33
2022-08-28T11:02:27.340Z,16.34
2022-08-28T11:04:58.757Z,16.37
2022-08-28T11:07:36.023Z,16.37
2022-08-28T11:10:21.914Z,16.39
2022-08-28T11:12:54.103Z,16.39
2022-08-28T11:15:37.024Z,16.40
2022-08-28T11:18:18.745Z,16.40
2022-08-28T11:21:25.583Z,16.40
2022-08-28T11:24:23.698Z,16.39
2022-08-28T11:27:05.388Z,16.37
2022-08-28T11:30:03.857Z,16.42
2022-08-28T11:32:53.433Z,16.47
2022-08-28T11:35:39.353Z,16.50
2022-08-28T11:38:08.627Z,16.49
2022-08-28T11:40:38.010Z,16.49
2022-08-28T11:43:20.182Z,16.48
2022-08-28T11:45:51.456Z,16.49
2022-08-28T11:48:38.343Z,16.49
2022-08-28T11:51:26.259Z,16.49
2022-08-28T11:54:22.193Z,16.50
2022-08-28T11:57:14.098Z,16.49
2022-08-28T12:00:09.297Z,16.49
2022-08-28T12:02:40.493Z,16.51
2022-08-28T12:05:16.747Z,16.52
2022-08-28T12:07:48.338Z,16.53
2022-08-28T12:10:27.592Z,16.52
2022-08-28T12:13:08.500Z,16.51
2022-08-28T12:15:40.393Z,16.50
2022-08-28T12:18:16.498Z,16.49
2022-08-28T12:21:04.338Z,16.47
2022-08-28T12:23:43.061Z,16.49
2022-08-28T12:26:20.188Z,16.48
2022-08-28T12:28:52.818Z,16.49
2022-08-28T12:32:14.580Z,16.45
2022-08-28T12:35:05.652Z,16.37
2022-08-28T12:37:52.565Z,16.36
2022-08-28T12:40:52.023Z,16.35
2022-08-28T12:43:25.438Z,16.34
2022-08-28T12:46:03.101Z,16.35
2022-08-28T12:48:49.023Z,16.39
2022-08-28T12:51:23.544Z,16.40
2022-08-28T12:53:53.381Z,16.38
2022-08-28T12:56:23.958Z,16.35
2022-08-28T12:58:53.298Z,16.35
2022-08-28T13:01:33.123Z,16.34
2022-08-28T13:04:20.183Z,16.34
2022-08-28T13:06:48.468Z,16.32
2022-08-28T13:09:20.018Z,16.33
2022-08-28T13:11:52.662Z,16.34
2022-08-28T13:14:46.628Z,16.38
2022-08-28T13:17:18.417Z,16.38
2022-08-28T13:19:46.747Z,16.41
2022-08-28T13:22:35.380Z,16.43
2022-08-28T13:25:06.378Z,16.43
2022-08-28T13:27:39.907Z,16.41
2022-08-28T13:30:24.800Z,16.40
2022-08-28T13:33:15.858Z,16.40
2022-08-28T13:35:44.498Z,16.41
2022-08-28T13:38:17.938Z,16.41
2022-08-28T13:40:57.419Z,16.43
2022-08-28T13:43:29.140Z,16.43
2022-08-28T13:45:57.748Z,16.44
2022-08-28T13:48:28.647Z,16.43
2022-08-28T13:51:20.903Z,16.45
2022-08-28T13:53:50.899Z,16.48
2022-08-28T13:56:21.911Z,16.47
2022-08-28T13:58:57.242Z,16.46
2022-08-28T14:01:49.605Z,16.44
2022-08-28T14:04:18.027Z,16.45
2022-08-28T14:06:46.678Z,16.44
2022-08-28T14:09:17.722Z,16.44
2022-08-28T14:11:52.738Z,16.46
2022-08-28T14:14:21.135Z,16.51
2022-08-28T14:16:51.244Z,16.52
2022-08-28T14:19:19.858Z,16.59
2022-08-28T14:21:48.428Z,16.61
2022-08-28T14:24:18.948Z,16.63
2022-08-28T14:26:48.218Z,16.67
2022-08-28T14:29:18.259Z,16.72
2022-08-28T14:31:47.116Z,16.73
2022-08-28T14:34:21.617Z,16.74
2022-08-28T14:36:56.020Z,16.77
2022-08-28T14:39:27.643Z,16.81
2022-08-28T14:41:56.498Z,16.85
2022-08-28T14:44:27.493Z,16.86
2022-08-28T14:46:57.208Z,16.87
2022-08-28T14:49:27.334Z,16.92
2022-08-28T14:51:58.258Z,16.97
2022-08-28T14:54:27.379Z,17.01
2022-08-28T14:56:56.186Z,17.05
2022-08-28T14:59:28.499Z,17.10
2022-08-28T15:02:01.585Z,17.18
2022-08-28T15:04:38.578Z,17.25
2022-08-28T15:07:11.648Z,17.39
2022-08-28T15:09:42.541Z,17.47
2022-08-28T15:12:12.504Z,17.55
2022-08-28T15:14:40.880Z,17.59
2022-08-28T15:17:24.138Z,17.58
2022-08-28T15:20:02.397Z,17.54
2022-08-28T15:22:30.741Z,17.51
2022-08-28T15:24:59.587Z,17.50
2022-08-28T15:27:27.860Z,17.56
2022-08-28T15:29:56.089Z,17.60
2022-08-28T15:32:24.388Z,17.64
2022-08-28T15:34:53.388Z,17.73
2022-08-28T15:37:21.628Z,17.79
2022-08-28T15:40:08.448Z,17.87
2022-08-28T15:42:36.723Z,17.97
2022-08-28T15:45:05.213Z,18.00
2022-08-28T15:47:33.442Z,18.04
2022-08-28T15:50:02.098Z,18.02
2022-08-28T15:52:33.052Z,18.06
2022-08-28T15:55:01.364Z,18.06
2022-08-28T15:57:29.773Z,18.12
2022-08-28T15:59:58.156Z,18.18
2022-08-28T16:02:27.405Z,18.23
2022-08-28T16:04:55.987Z,18.28
2022-08-28T16:07:24.337Z,18.31
2022-08-28T16:09:53.308Z,18.37
2022-08-28T16:12:21.874Z,18.43
2022-08-28T16:14:51.203Z,18.53
2022-08-28T16:17:20.051Z,18.62
2022-08-28T16:19:48.349Z,18.72
2022-08-28T16:22:17.280Z,18.82
2022-08-28T16:24:46.578Z,18.89
2022-08-28T16:27:15.893Z,18.96
2022-08-28T16:29:49.506Z,19.00
2022-08-28T16:32:21.301Z,19.06
2022-08-28T16:34:49.897Z,19.12
2022-08-28T16:37:21.082Z,19.19
2022-08-28T16:39:49.850Z,19.30
2022-08-28T16:42:18.395Z,19.39
2022-08-28T16:44:46.643Z,19.45
2022-08-28T16:47:15.158Z,19.51
2022-08-28T16:49:43.423Z,19.57
2022-08-28T16:52:11.729Z,19.62
2022-08-28T16:54:47.518Z,19.72
2022-08-28T16:57:17.842Z,19.82
2022-08-28T16:59:46.673Z,19.88
2022-08-28T17:02:15.706Z,19.93
2022-08-28T17:04:47.085Z,20.00
2022-08-28T17:07:16.273Z,20.08
2022-08-28T17:09:44.802Z,20.16
2022-08-28T17:12:13.128Z,20.21
2022-08-28T17:14:43.407Z,20.25
2022-08-28T17:17:12.303Z,20.31
2022-08-28T17:19:41.222Z,20.38
2022-08-28T17:22:27.802Z,20.43
2022-08-28T17:24:57.068Z,20.57
2022-08-28T17:27:25.619Z,20.68
2022-08-28T17:29:56.578Z,20.71
2022-08-28T17:32:25.242Z,20.75
2022-08-28T17:34:54.423Z,20.81
2022-08-28T17:37:24.825Z,20.91
2022-08-28T17:39:54.372Z,21.02
2022-08-28T17:42:22.829Z,21.08
2022-08-28T17:44:51.122Z,21.19
2022-08-28T17:47:19.463Z,21.35
2022-08-28T17:50:01.238Z,21.43
2022-08-28T17:52:30.543Z,21.44
2022-08-28T17:54:59.063Z,21.51
2022-08-28T17:57:31.159Z,21.57
2022-08-28T18:00:01.457Z,21.63
2022-08-28T18:02:33.938Z,21.72
2022-08-28T18:05:03.102Z,21.85
2022-08-28T18:07:31.878Z,21.95
2022-08-28T18:10:00.339Z,22.04
2022-08-28T18:12:28.963Z,22.11
2022-08-28T18:14:57.624Z,22.23
2022-08-28T18:17:26.198Z,22.35
2022-08-28T18:19:54.818Z,22.45
2022-08-28T18:22:26.435Z,22.51
2022-08-28T18:24:57.458Z,22.57
2022-08-28T18:27:28.839Z,22.66
2022-08-28T18:29:57.793Z,22.71
2022-08-28T18:32:26.750Z,22.76
2022-08-28T18:34:55.058Z,22.84
2022-08-28T18:37:23.353Z,22.97
2022-08-28T18:39:51.771Z,23.08
2022-08-28T18:42:23.148Z,23.17
2022-08-28T18:44:51.393Z,23.35
2022-08-28T18:47:19.803Z,23.46
2022-08-28T18:49:48.088Z,23.59
2022-08-28T18:52:16.388Z,23.68
2022-08-28T18:54:44.739Z,23.73
2022-08-28T18:57:15.060Z,23.81
2022-08-28T18:59:43.543Z,23.88
2022-08-28T19:02:13.742Z,23.84
2022-08-28T19:04:43.658Z,23.83
2022-08-28T19:07:13.833Z,23.90
2022-08-28T19:09:42.900Z,24.02
2022-08-28T19:12:11.303Z,24.20
2022-08-28T19:14:39.863Z,24.30
2022-08-28T19:17:10.898Z,24.44
2022-08-28T19:19:39.800Z,24.66
2022-08-28T19:22:08.098Z,24.88
2022-08-28T19:24:36.389Z,25.02
2022-08-28T19:27:05.463Z,25.14
2022-08-28T19:29:34.033Z,25.20
2022-08-28T19:32:02.343Z,25.26
2022-08-28T19:34:30.703Z,25.36
2022-08-28T19:36:59.784Z,25.50
2022-08-28T19:39:28.628Z,25.63
2022-08-28T19:41:57.718Z,25.77
2022-08-28T19:44:26.093Z,25.81
2022-08-28T19:46:54.583Z,25.86
2022-08-28T19:49:23.058Z,25.98
2022-08-28T19:51:52.122Z,26.09
2022-08-28T19:54:20.608Z,26.24
2022-08-28T19:56:49.473Z,26.32
2022-08-28T19:59:17.779Z,26.43
2022-08-28T20:01:47.372Z,26.54
2022-08-28T20:04:18.532Z,26.65
2022-08-28T20:06:48.103Z,26.81
2022-08-28T20:09:18.263Z,27.00
2022-08-28T20:11:47.785Z,27.22
2022-08-28T20:14:18.424Z,27.30
2022-08-28T20:16:51.908Z,27.30
2022-08-28T20:19:21.483Z,27.53
2022-08-28T20:21:51.059Z,27.70
2022-08-28T20:24:24.588Z,27.74
2022-08-28T20:26:53.901Z,27.91
2022-08-28T20:29:24.914Z,28.04
2022-08-28T20:31:53.804Z,28.12
2022-08-28T20:34:22.503Z,28.31
2022-08-28T20:36:50.900Z,28.35
2022-08-28T20:39:19.855Z,28.44
2022-08-28T20:41:50.263Z,28.45
2022-08-28T20:44:21.102Z,28.54
2022-08-28T20:46:51.372Z,28.66
2022-08-28T20:49:22.908Z,28.70
2022-08-28T20:51:57.683Z,28.72
2022-08-28T20:54:35.508Z,28.91
2022-08-28T20:57:08.434Z,29.15
2022-08-28T20:59:39.661Z,29.30
2022-08-28T21:02:14.838Z,29.48
2022-08-28T21:04:45.017Z,29.63
2022-08-28T21:07:15.618Z,29.80
2022-08-28T21:10:07.073Z,29.84
2022-08-28T21:12:32.912Z,30.00
2022-08-28T21:15:01.422Z,30.11
2022-08-28T21:17:30.705Z,30.20
2022-08-28T21:20:04.762Z,30.46
2022-08-28T21:22:35.115Z,30.73
2022-08-28T21:25:04.817Z,30.89
2022-08-28T21:27:33.138Z,31.12
2022-08-28T21:30:02.897Z,31.00
2022-08-28T21:32:33.623Z,30.94
2022-08-28T21:35:03.308Z,30.93
2022-08-28T21:37:32.018Z,31.00
2022-08-28T21:40:01.711Z,31.12
2022-08-28T21:42:30.149Z,31.24
2022-08-28T21:44:58.577Z,31.38
2022-08-28T21:47:27.551Z,31.47
2022-08-28T21:49:58.258Z,31.65
2022-08-28T21:52:31.557Z,31.66
2022-08-28T21:55:03.200Z,31.67
2022-08-28T21:57:31.953Z,31.67
2022-08-28T22:00:00.660Z,31.61
2022-08-28T22:02:29.486Z,31.64
2022-08-28T22:04:57.843Z,31.48
2022-08-28T22:07:26.588Z,31.48
2022-08-28T22:09:54.988Z,31.58
2022-08-28T22:12:23.693Z,31.61
2022-08-28T22:14:52.010Z,31.67
2022-08-28T22:17:21.461Z,31.72
2022-08-28T22:19:49.863Z,31.63
2022-08-28T22:22:37.550Z,31.59
2022-08-28T22:25:06.942Z,31.38
2022-08-28T22:27:35.793Z,31.32
2022-08-28T22:30:05.457Z,31.29
2022-08-28T22:32:34.258Z,31.15
2022-08-28T22:35:02.635Z,30.93
2022-08-28T22:37:31.028Z,30.65
2022-08-28T22:40:02.555Z,30.45
2022-08-28T22:42:38.368Z,30.31
2022-08-28T22:45:07.948Z,30.14
2022-08-28T22:47:37.173Z,30.09
2022-08-28T22:50:06.137Z,30.13
2022-08-28T22:52:34.683Z,30.11
2022-08-28T22:55:03.222Z,29.81
2022-08-28T22:57:35.220Z,29.76
2022-08-28T23:00:05.933Z,29.73
2022-08-28T23:02:34.616Z,29.72
2022-08-28T23:05:03.018Z,29.57
2022-08-28T23:07:31.308Z,29.25
2022-08-28T23:09:59.563Z,29.03
2022-08-28T23:12:27.878Z,28.97
2022-08-28T23:14:56.200Z,28.77
2022-08-28T23:17:24.657Z,28.62
2022-08-28T23:19:53.073Z,28.43
2022-08-28T23:22:21.737Z,28.29
2022-08-28T23:24:50.048Z,28.14
2022-08-28T23:27:35.816Z,28.11
2022-08-28T23:30:07.337Z,27.92
2022-08-28T23:32:35.892Z,27.66
2022-08-28T23:35:07.298Z,27.43
2022-08-28T23:37:36.593Z,27.34
2022-08-28T23:40:09.923Z,27.31
2022-08-28T23:42:38.827Z,27.22
2022-08-28T23:45:08.053Z,27.04
2022-08-28T23:47:40.794Z,26.91
2022-08-28T23:50:14.738Z,26.86
2022-08-28T23:52:44.251Z,26.72
2022-08-28T23:55:14.692Z,26.64
2022-08-28T23:57:44.103Z,26.58
